sensor_id;sensor_type;location;lat;lon;timestamp;P1;durP1;ratioP1;P2;durP2;ratioP2
45893;SDS011;31603;51.148;16.932;2023-08-06T00:02:23;7.32;;;6.53;;
45893;SDS011;31603;51.148;16.932;2023-08-06T00:04:50;5.55;;;4.95;;
45893;SDS011;31603;51.148;16.932;2023-08-06T00:07:17;6.53;;;4.93;;
45893;SDS011;31603;51.148;16.932;2023-08-06T00:09:44;6.18;;;4.97;;
45893;SDS011;31603;51.148;16.932;2023-08-06T00:12:12;8.20;;;5.07;;
45893;SDS011;31603;51.148;16.932;2023-08-06T00:14:38;5.75;;;4.40;;
45893;SDS011;31603;51.148;16.932;2023-08-06T00:17:05;8.93;;;5.43;;
45893;SDS011;31603;51.148;16.932;2023-08-06T00:19:31;5.40;;;4.82;;
45893;SDS011;31603;51.148;16.932;2023-08-06T00:21:58;6.97;;;5.63;;
45893;SDS011;31603;51.148;16.932;2023-08-06T00:24:24;6.68;;;4.90;;
45893;SDS011;31603;51.148;16.932;2023-08-06T00:26:51;5.72;;;4.68;;
45893;SDS011;31603;51.148;16.932;2023-08-06T00:29:19;5.85;;;4.70;;
45893;SDS011;31603;51.148;16.932;2023-08-06T00:31:45;6.90;;;5.97;;
45893;SDS011;31603;51.148;16.932;2023-08-06T00:34:12;5.93;;;4.80;;
45893;SDS011;31603;51.148;16.932;2023-08-06T00:36:38;6.78;;;4.72;;
45893;SDS011;31603;51.148;16.932;2023-08-06T00:39:05;4.65;;;4.03;;
45893;SDS011;31603;51.148;16.932;2023-08-06T00:41:32;5.22;;;4.03;;
45893;SDS011;31603;51.148;16.932;2023-08-06T00:43:59;5.75;;;4.47;;
45893;SDS011;31603;51.148;16.932;2023-08-06T00:46:27;5.97;;;4.93;;
45893;SDS011;31603;51.148;16.932;2023-08-06T00:48:53;4.53;;;3.97;;
45893;SDS011;31603;51.148;16.932;2023-08-06T00:51:20;5.20;;;4.50;;
45893;SDS011;31603;51.148;16.932;2023-08-06T00:53:48;4.80;;;4.30;;
45893;SDS011;31603;51.148;16.932;2023-08-06T00:56:16;5.30;;;4.80;;
45893;SDS011;31603;51.148;16.932;2023-08-06T00:58:42;4.88;;;3.10;;
45893;SDS011;31603;51.148;16.932;2023-08-06T01:01:10;3.30;;;3.00;;
45893;SDS011;31603;51.148;16.932;2023-08-06T01:03:38;5.35;;;3.53;;
45893;SDS011;31603;51.148;16.932;2023-08-06T01:06:05;6.15;;;3.60;;
45893;SDS011;31603;51.148;16.932;2023-08-06T01:08:34;3.80;;;3.40;;
45893;SDS011;31603;51.148;16.932;2023-08-06T01:11:14;4.28;;;3.60;;
45893;SDS011;31603;51.148;16.932;2023-08-06T01:13:48;4.00;;;3.20;;
45893;SDS011;31603;51.148;16.932;2023-08-06T01:16:17;4.82;;;3.50;;
45893;SDS011;31603;51.148;16.932;2023-08-06T01:18:46;5.10;;;4.15;;
45893;SDS011;31603;51.148;16.932;2023-08-06T01:21:15;4.15;;;3.72;;
45893;SDS011;31603;51.148;16.932;2023-08-06T01:23:42;3.67;;;3.05;;
45893;SDS011;31603;51.148;16.932;2023-08-06T01:26:11;4.32;;;2.90;;
45893;SDS011;31603;51.148;16.932;2023-08-06T01:28:44;3.53;;;2.50;;
45893;SDS011;31603;51.148;16.932;2023-08-06T01:31:18;3.90;;;2.70;;
45893;SDS011;31603;51.148;16.932;2023-08-06T01:33:50;1.92;;;1.77;;
45893;SDS011;31603;51.148;16.932;2023-08-06T01:36:19;2.20;;;2.00;;
45893;SDS011;31603;51.148;16.932;2023-08-06T01:38:46;2.75;;;2.20;;
45893;SDS011;31603;51.148;16.932;2023-08-06T01:41:13;2.15;;;1.95;;
45893;SDS011;31603;51.148;16.932;2023-08-06T01:43:39;2.20;;;2.00;;
45893;SDS011;31603;51.148;16.932;2023-08-06T01:46:06;1.98;;;1.70;;
45893;SDS011;31603;51.148;16.932;2023-08-06T01:48:32;2.10;;;1.90;;
45893;SDS011;31603;51.148;16.932;2023-08-06T01:50:59;2.28;;;2.08;;
45893;SDS011;31603;51.148;16.932;2023-08-06T01:53:27;2.60;;;2.10;;
45893;SDS011;31603;51.148;16.932;2023-08-06T01:55:53;2.58;;;2.38;;
45893;SDS011;31603;51.148;16.932;2023-08-06T01:58:19;2.42;;;2.05;;
45893;SDS011;31603;51.148;16.932;2023-08-06T02:00:46;2.03;;;1.80;;
45893;SDS011;31603;51.148;16.932;2023-08-06T02:03:12;3.00;;;1.70;;
45893;SDS011;31603;51.148;16.932;2023-08-06T02:05:39;1.95;;;1.48;;
45893;SDS011;31603;51.148;16.932;2023-08-06T02:08:07;2.03;;;1.63;;
45893;SDS011;31603;51.148;16.932;2023-08-06T02:10:35;4.40;;;1.77;;
45893;SDS011;31603;51.148;16.932;2023-08-06T02:13:02;1.83;;;1.58;;
45893;SDS011;31603;51.148;16.932;2023-08-06T02:15:28;5.72;;;1.83;;
45893;SDS011;31603;51.148;16.932;2023-08-06T02:17:54;5.68;;;2.13;;
45893;SDS011;31603;51.148;16.932;2023-08-06T02:20:21;4.75;;;1.73;;
45893;SDS011;31603;51.148;16.932;2023-08-06T02:22:47;3.38;;;1.70;;
45893;SDS011;31603;51.148;16.932;2023-08-06T02:25:14;3.42;;;1.80;;
45893;SDS011;31603;51.148;16.932;2023-08-06T02:27:42;2.78;;;1.38;;
45893;SDS011;31603;51.148;16.932;2023-08-06T02:30:08;2.45;;;1.23;;
45893;SDS011;31603;51.148;16.932;2023-08-06T02:32:37;2.55;;;1.42;;
45893;SDS011;31603;51.148;16.932;2023-08-06T02:35:03;1.48;;;1.10;;
45893;SDS011;31603;51.148;16.932;2023-08-06T02:37:30;1.67;;;1.20;;
45893;SDS011;31603;51.148;16.932;2023-08-06T02:39:59;1.17;;;1.08;;
45893;SDS011;31603;51.148;16.932;2023-08-06T02:42:26;2.00;;;0.90;;
45893;SDS011;31603;51.148;16.932;2023-08-06T02:44:54;1.98;;;0.85;;
45893;SDS011;31603;51.148;16.932;2023-08-06T02:47:21;1.80;;;1.30;;
45893;SDS011;31603;51.148;16.932;2023-08-06T02:49:48;3.33;;;1.00;;
45893;SDS011;31603;51.148;16.932;2023-08-06T02:52:15;1.30;;;1.20;;
45893;SDS011;31603;51.148;16.932;2023-08-06T02:54:42;1.17;;;1.08;;
45893;SDS011;31603;51.148;16.932;2023-08-06T02:57:09;2.75;;;1.30;;
45893;SDS011;31603;51.148;16.932;2023-08-06T02:59:35;1.17;;;1.08;;
45893;SDS011;31603;51.148;16.932;2023-08-06T03:02:03;2.13;;;1.10;;
45893;SDS011;31603;51.148;16.932;2023-08-06T03:04:30;1.52;;;1.20;;
45893;SDS011;31603;51.148;16.932;2023-08-06T03:06:57;1.00;;;0.90;;
45893;SDS011;31603;51.148;16.932;2023-08-06T03:09:26;1.38;;;1.10;;
45893;SDS011;31603;51.148;16.932;2023-08-06T03:11:54;0.80;;;0.80;;
45893;SDS011;31603;51.148;16.932;2023-08-06T03:14:20;0.75;;;0.75;;
45893;SDS011;31603;51.148;16.932;2023-08-06T03:16:47;1.38;;;0.90;;
45893;SDS011;31603;51.148;16.932;2023-08-06T03:19:15;1.17;;;0.80;;
45893;SDS011;31603;51.148;16.932;2023-08-06T03:21:41;0.80;;;0.60;;
45893;SDS011;31603;51.148;16.932;2023-08-06T03:24:09;1.10;;;0.80;;
45893;SDS011;31603;51.148;16.932;2023-08-06T03:26:35;0.80;;;0.60;;
45893;SDS011;31603;51.148;16.932;2023-08-06T03:29:02;1.67;;;1.00;;
45893;SDS011;31603;51.148;16.932;2023-08-06T03:31:28;1.00;;;0.80;;
45893;SDS011;31603;51.148;16.932;2023-08-06T03:33:55;1.13;;;0.90;;
45893;SDS011;31603;51.148;16.932;2023-08-06T03:36:23;1.42;;;0.88;;
45893;SDS011;31603;51.148;16.932;2023-08-06T03:38:50;1.08;;;0.90;;
45893;SDS011;31603;51.148;16.932;2023-08-06T03:41:16;1.52;;;0.70;;
45893;SDS011;31603;51.148;16.932;2023-08-06T03:43:42;0.80;;;0.60;;
45893;SDS011;31603;51.148;16.932;2023-08-06T03:46:09;0.93;;;0.65;;
45893;SDS011;31603;51.148;16.932;2023-08-06T03:48:35;1.27;;;0.70;;
45893;SDS011;31603;51.148;16.932;2023-08-06T03:51:02;0.65;;;0.60;;
45893;SDS011;31603;51.148;16.932;2023-08-06T03:53:34;0.57;;;0.57;;
45893;SDS011;31603;51.148;16.932;2023-08-06T03:56:00;0.50;;;0.47;;
45893;SDS011;31603;51.148;16.932;2023-08-06T03:58:27;1.80;;;0.70;;
45893;SDS011;31603;51.148;16.932;2023-08-06T04:00:57;0.63;;;0.43;;
45893;SDS011;31603;51.148;16.932;2023-08-06T04:03:24;0.70;;;0.45;;
45893;SDS011;31603;51.148;16.932;2023-08-06T04:05:52;1.40;;;0.52;;
45893;SDS011;31603;51.148;16.932;2023-08-06T04:08:20;0.43;;;0.43;;
45893;SDS011;31603;51.148;16.932;2023-08-06T04:10:50;0.52;;;0.50;;
45893;SDS011;31603;51.148;16.932;2023-08-06T04:13:17;0.60;;;0.50;;
45893;SDS011;31603;51.148;16.932;2023-08-06T04:15:44;0.77;;;0.70;;
45893;SDS011;31603;51.148;16.932;2023-08-06T04:18:11;0.60;;;0.60;;
45893;SDS011;31603;51.148;16.932;2023-08-06T04:20:42;1.60;;;0.60;;
45893;SDS011;31603;51.148;16.932;2023-08-06T04:23:08;1.13;;;0.50;;
45893;SDS011;31603;51.148;16.932;2023-08-06T04:25:35;0.47;;;0.45;;
45893;SDS011;31603;51.148;16.932;2023-08-06T04:28:03;1.40;;;0.60;;
45893;SDS011;31603;51.148;16.932;2023-08-06T04:30:29;1.42;;;0.63;;
45893;SDS011;31603;51.148;16.932;2023-08-06T04:32:56;1.95;;;0.60;;
45893;SDS011;31603;51.148;16.932;2023-08-06T04:35:24;0.80;;;0.80;;
45893;SDS011;31603;51.148;16.932;2023-08-06T04:37:50;0.60;;;0.52;;
45893;SDS011;31603;51.148;16.932;2023-08-06T04:40:17;1.15;;;0.88;;
45893;SDS011;31603;51.148;16.932;2023-08-06T04:42:43;0.47;;;0.47;;
45893;SDS011;31603;51.148;16.932;2023-08-06T04:45:11;0.70;;;0.70;;
45893;SDS011;31603;51.148;16.932;2023-08-06T04:47:38;0.70;;;0.70;;
45893;SDS011;31603;51.148;16.932;2023-08-06T04:50:05;1.45;;;0.90;;
45893;SDS011;31603;51.148;16.932;2023-08-06T04:52:32;0.80;;;0.77;;
45893;SDS011;31603;51.148;16.932;2023-08-06T04:54:58;0.68;;;0.68;;
45893;SDS011;31603;51.148;16.932;2023-08-06T04:57:26;0.60;;;0.60;;
45893;SDS011;31603;51.148;16.932;2023-08-06T04:59:54;4.60;;;0.90;;
45893;SDS011;31603;51.148;16.932;2023-08-06T05:02:21;1.15;;;0.55;;
45893;SDS011;31603;51.148;16.932;2023-08-06T05:04:48;2.58;;;0.80;;
45893;SDS011;31603;51.148;16.932;2023-08-06T05:07:14;2.28;;;0.95;;
45893;SDS011;31603;51.148;16.932;2023-08-06T05:09:42;1.33;;;1.02;;
45893;SDS011;31603;51.148;16.932;2023-08-06T05:12:08;2.30;;;1.30;;
45893;SDS011;31603;51.148;16.932;2023-08-06T05:14:35;1.50;;;0.80;;
45893;SDS011;31603;51.148;16.932;2023-08-06T05:17:02;3.20;;;0.90;;
45893;SDS011;31603;51.148;16.932;2023-08-06T05:19:31;1.70;;;0.80;;
45893;SDS011;31603;51.148;16.932;2023-08-06T05:21:57;1.75;;;0.70;;
45893;SDS011;31603;51.148;16.932;2023-08-06T05:24:24;0.70;;;0.70;;
45893;SDS011;31603;51.148;16.932;2023-08-06T05:26:50;0.77;;;0.70;;
45893;SDS011;31603;51.148;16.932;2023-08-06T05:29:17;1.60;;;1.40;;
45893;SDS011;31603;51.148;16.932;2023-08-06T05:31:43;1.23;;;0.85;;
45893;SDS011;31603;51.148;16.932;2023-08-06T05:34:10;0.90;;;0.80;;
45893;SDS011;31603;51.148;16.932;2023-08-06T05:36:39;1.60;;;0.88;;
45893;SDS011;31603;51.148;16.932;2023-08-06T05:39:06;1.10;;;0.90;;
45893;SDS011;31603;51.148;16.932;2023-08-06T05:41:32;0.85;;;0.70;;
45893;SDS011;31603;51.148;16.932;2023-08-06T05:43:59;0.95;;;0.80;;
45893;SDS011;31603;51.148;16.932;2023-08-06T05:46:25;1.48;;;1.33;;
45893;SDS011;31603;51.148;16.932;2023-08-06T05:48:52;1.58;;;0.65;;
45893;SDS011;31603;51.148;16.932;2023-08-06T05:51:19;0.82;;;0.80;;
45893;SDS011;31603;51.148;16.932;2023-08-06T05:53:47;0.70;;;0.70;;
45893;SDS011;31603;51.148;16.932;2023-08-06T05:56:15;2.63;;;0.90;;
45893;SDS011;31603;51.148;16.932;2023-08-06T05:58:42;1.38;;;0.77;;
45893;SDS011;31603;51.148;16.932;2023-08-06T06:01:11;1.77;;;1.08;;
45893;SDS011;31603;51.148;16.932;2023-08-06T06:03:37;1.20;;;0.70;;
45893;SDS011;31603;51.148;16.932;2023-08-06T06:06:04;1.67;;;1.38;;
45893;SDS011;31603;51.148;16.932;2023-08-06T06:08:30;2.78;;;0.90;;
45893;SDS011;31603;51.148;16.932;2023-08-06T06:10:59;0.75;;;0.68;;
45893;SDS011;31603;51.148;16.932;2023-08-06T06:13:25;2.40;;;1.10;;
45893;SDS011;31603;51.148;16.932;2023-08-06T06:15:54;1.25;;;0.70;;
45893;SDS011;31603;51.148;16.932;2023-08-06T06:18:20;4.65;;;0.68;;
45893;SDS011;31603;51.148;16.932;2023-08-06T06:20:47;2.40;;;0.80;;
45893;SDS011;31603;51.148;16.932;2023-08-06T06:23:15;3.20;;;1.10;;
45893;SDS011;31603;51.148;16.932;2023-08-06T06:25:42;1.00;;;0.60;;
45893;SDS011;31603;51.148;16.932;2023-08-06T06:28:10;2.60;;;0.75;;
45893;SDS011;31603;51.148;16.932;2023-08-06T06:30:38;1.20;;;0.82;;
45893;SDS011;31603;51.148;16.932;2023-08-06T06:33:06;0.95;;;0.60;;
45893;SDS011;31603;51.148;16.932;2023-08-06T06:35:32;1.90;;;0.80;;
45893;SDS011;31603;51.148;16.932;2023-08-06T06:37:59;2.30;;;1.05;;
45893;SDS011;31603;51.148;16.932;2023-08-06T06:40:26;1.90;;;1.00;;
45893;SDS011;31603;51.148;16.932;2023-08-06T06:42:55;2.40;;;0.60;;
45893;SDS011;31603;51.148;16.932;2023-08-06T06:45:23;1.02;;;0.73;;
45893;SDS011;31603;51.148;16.932;2023-08-06T06:47:50;3.03;;;0.98;;
45893;SDS011;31603;51.148;16.932;2023-08-06T06:50:17;1.42;;;0.68;;
45893;SDS011;31603;51.148;16.932;2023-08-06T06:52:43;1.10;;;0.70;;
45893;SDS011;31603;51.148;16.932;2023-08-06T06:55:10;1.67;;;0.95;;
45893;SDS011;31603;51.148;16.932;2023-08-06T06:57:36;1.42;;;0.98;;
45893;SDS011;31603;51.148;16.932;2023-08-06T07:00:03;1.20;;;0.80;;
45893;SDS011;31603;51.148;16.932;2023-08-06T07:02:35;1.13;;;0.80;;
45893;SDS011;31603;51.148;16.932;2023-08-06T07:05:02;1.88;;;1.00;;
45893;SDS011;31603;51.148;16.932;2023-08-06T07:07:28;1.33;;;0.98;;
45893;SDS011;31603;51.148;16.932;2023-08-06T07:10:00;1.13;;;0.73;;
45893;SDS011;31603;51.148;16.932;2023-08-06T07:12:28;2.67;;;1.17;;
45893;SDS011;31603;51.148;16.932;2023-08-06T07:14:55;2.22;;;0.90;;
45893;SDS011;31603;51.148;16.932;2023-08-06T07:17:23;0.90;;;0.90;;
45893;SDS011;31603;51.148;16.932;2023-08-06T07:19:52;1.05;;;0.93;;
45893;SDS011;31603;51.148;16.932;2023-08-06T07:22:19;1.70;;;1.10;;
45893;SDS011;31603;51.148;16.932;2023-08-06T07:24:47;2.67;;;1.77;;
45893;SDS011;31603;51.148;16.932;2023-08-06T07:27:15;1.50;;;1.40;;
45893;SDS011;31603;51.148;16.932;2023-08-06T07:29:41;1.23;;;1.13;;
45893;SDS011;31603;51.148;16.932;2023-08-06T07:32:10;1.58;;;1.40;;
45893;SDS011;31603;51.148;16.932;2023-08-06T07:34:37;2.17;;;1.77;;
45893;SDS011;31603;51.148;16.932;2023-08-06T07:37:12;2.75;;;2.25;;
45893;SDS011;31603;51.148;16.932;2023-08-06T07:39:39;2.55;;;2.00;;
45893;SDS011;31603;51.148;16.932;2023-08-06T07:42:07;2.20;;;2.00;;
45893;SDS011;31603;51.148;16.932;2023-08-06T07:44:34;2.13;;;1.92;;
45893;SDS011;31603;51.148;16.932;2023-08-06T07:47:00;2.53;;;2.15;;
45893;SDS011;31603;51.148;16.932;2023-08-06T07:49:27;2.50;;;1.92;;
45893;SDS011;31603;51.148;16.932;2023-08-06T07:51:53;2.80;;;2.17;;
45893;SDS011;31603;51.148;16.932;2023-08-06T07:54:23;1.67;;;1.58;;
45893;SDS011;31603;51.148;16.932;2023-08-06T07:56:53;1.90;;;1.80;;
45893;SDS011;31603;51.148;16.932;2023-08-06T07:59:20;1.90;;;1.70;;
45893;SDS011;31603;51.148;16.932;2023-08-06T08:01:46;2.13;;;1.92;;
45893;SDS011;31603;51.148;16.932;2023-08-06T08:04:13;2.53;;;2.10;;
45893;SDS011;31603;51.148;16.932;2023-08-06T08:06:40;1.80;;;1.70;;
45893;SDS011;31603;51.148;16.932;2023-08-06T08:09:07;2.20;;;2.00;;
45893;SDS011;31603;51.148;16.932;2023-08-06T08:11:42;4.05;;;2.10;;
45893;SDS011;31603;51.148;16.932;2023-08-06T08:14:09;3.65;;;1.80;;
45893;SDS011;31603;51.148;16.932;2023-08-06T08:16:36;1.80;;;1.67;;
45893;SDS011;31603;51.148;16.932;2023-08-06T08:19:02;2.00;;;1.80;;
45893;SDS011;31603;51.148;16.932;2023-08-06T08:21:29;2.67;;;1.90;;
45893;SDS011;31603;51.148;16.932;2023-08-06T08:23:56;2.42;;;1.67;;
45893;SDS011;31603;51.148;16.932;2023-08-06T08:26:22;1.90;;;1.70;;
45893;SDS011;31603;51.148;16.932;2023-08-06T08:28:52;2.45;;;2.10;;
45893;SDS011;31603;51.148;16.932;2023-08-06T08:31:18;4.65;;;2.72;;
45893;SDS011;31603;51.148;16.932;2023-08-06T08:33:45;3.08;;;2.60;;
45893;SDS011;31603;51.148;16.932;2023-08-06T08:36:11;3.42;;;2.58;;
45893;SDS011;31603;51.148;16.932;2023-08-06T08:38:38;4.88;;;2.90;;
45893;SDS011;31603;51.148;16.932;2023-08-06T08:41:05;4.70;;;3.10;;
45893;SDS011;31603;51.148;16.932;2023-08-06T08:43:32;12.77;;;7.03;;
45893;SDS011;31603;51.148;16.932;2023-08-06T08:46:01;11.73;;;6.25;;
45893;SDS011;31603;51.148;16.932;2023-08-06T08:48:30;3.95;;;2.28;;
45893;SDS011;31603;51.148;16.932;2023-08-06T08:50:56;2.90;;;1.90;;
45893;SDS011;31603;51.148;16.932;2023-08-06T08:53:24;2.47;;;1.40;;
45893;SDS011;31603;51.148;16.932;2023-08-06T08:55:52;5.43;;;3.20;;
45893;SDS011;31603;51.148;16.932;2023-08-06T08:58:20;3.03;;;1.80;;
45893;SDS011;31603;51.148;16.932;2023-08-06T09:00:47;8.88;;;4.20;;
45893;SDS011;31603;51.148;16.932;2023-08-06T09:03:16;3.97;;;2.78;;
45893;SDS011;31603;51.148;16.932;2023-08-06T09:05:43;2.05;;;1.38;;
45893;SDS011;31603;51.148;16.932;2023-08-06T09:08:11;2.78;;;1.45;;
45893;SDS011;31603;51.148;16.932;2023-08-06T09:10:41;3.45;;;1.67;;
45893;SDS011;31603;51.148;16.932;2023-08-06T09:13:09;4.03;;;2.10;;
45893;SDS011;31603;51.148;16.932;2023-08-06T09:15:37;3.88;;;2.47;;
45893;SDS011;31603;51.148;16.932;2023-08-06T09:18:09;1.70;;;1.42;;
45893;SDS011;31603;51.148;16.932;2023-08-06T09:20:38;3.72;;;1.63;;
45893;SDS011;31603;51.148;16.932;2023-08-06T09:23:07;2.97;;;1.63;;
45893;SDS011;31603;51.148;16.932;2023-08-06T09:25:36;2.00;;;1.55;;
45893;SDS011;31603;51.148;16.932;2023-08-06T09:28:05;2.05;;;1.40;;
45893;SDS011;31603;51.148;16.932;2023-08-06T09:30:32;2.22;;;1.58;;
45893;SDS011;31603;51.148;16.932;2023-08-06T09:33:08;2.20;;;1.67;;
45893;SDS011;31603;51.148;16.932;2023-08-06T09:35:36;3.38;;;1.83;;
45893;SDS011;31603;51.148;16.932;2023-08-06T09:38:05;2.17;;;1.48;;
45893;SDS011;31603;51.148;16.932;2023-08-06T09:40:33;1.20;;;1.10;;
45893;SDS011;31603;51.148;16.932;2023-08-06T09:43:04;1.65;;;1.40;;
45893;SDS011;31603;51.148;16.932;2023-08-06T09:45:31;1.60;;;1.40;;
45893;SDS011;31603;51.148;16.932;2023-08-06T09:47:59;1.60;;;1.27;;
45893;SDS011;31603;51.148;16.932;2023-08-06T09:50:28;2.38;;;1.50;;
45893;SDS011;31603;51.148;16.932;2023-08-06T09:52:58;2.15;;;1.65;;
45893;SDS011;31603;51.148;16.932;2023-08-06T09:55:26;2.88;;;1.80;;
45893;SDS011;31603;51.148;16.932;2023-08-06T09:57:53;1.77;;;1.33;;
45893;SDS011;31603;51.148;16.932;2023-08-06T10:00:20;1.70;;;1.50;;
45893;SDS011;31603;51.148;16.932;2023-08-06T10:02:47;3.45;;;1.58;;
45893;SDS011;31603;51.148;16.932;2023-08-06T10:05:16;1.38;;;1.10;;
45893;SDS011;31603;51.148;16.932;2023-08-06T10:07:45;2.97;;;2.08;;
45893;SDS011;31603;51.148;16.932;2023-08-06T10:10:18;3.03;;;1.80;;
45893;SDS011;31603;51.148;16.932;2023-08-06T10:12:46;1.73;;;1.40;;
45893;SDS011;31603;51.148;16.932;2023-08-06T10:15:16;1.30;;;1.13;;
45893;SDS011;31603;51.148;16.932;2023-08-06T10:17:47;2.15;;;1.63;;
45893;SDS011;31603;51.148;16.932;2023-08-06T10:20:17;1.47;;;1.30;;
45893;SDS011;31603;51.148;16.932;2023-08-06T10:22:46;1.98;;;1.58;;
45893;SDS011;31603;51.148;16.932;2023-08-06T10:25:29;5.07;;;2.20;;
45893;SDS011;31603;51.148;16.932;2023-08-06T10:27:59;2.22;;;1.70;;
45893;SDS011;31603;51.148;16.932;2023-08-06T10:30:26;1.77;;;1.45;;
45893;SDS011;31603;51.148;16.932;2023-08-06T10:32:54;1.60;;;1.40;;
45893;SDS011;31603;51.148;16.932;2023-08-06T10:35:32;2.20;;;1.63;;
45893;SDS011;31603;51.148;16.932;2023-08-06T10:38:05;2.40;;;1.48;;
45893;SDS011;31603;51.148;16.932;2023-08-06T10:40:36;2.78;;;1.65;;
45893;SDS011;31603;51.148;16.932;2023-08-06T10:43:05;1.92;;;1.55;;
45893;SDS011;31603;51.148;16.932;2023-08-06T10:45:37;3.90;;;1.80;;
45893;SDS011;31603;51.148;16.932;2023-08-06T10:48:04;3.03;;;2.15;;
45893;SDS011;31603;51.148;16.932;2023-08-06T10:50:31;4.05;;;2.15;;
45893;SDS011;31603;51.148;16.932;2023-08-06T10:53:00;3.50;;;2.40;;
45893;SDS011;31603;51.148;16.932;2023-08-06T10:55:30;3.08;;;2.25;;
45893;SDS011;31603;51.148;16.932;2023-08-06T10:58:01;2.97;;;1.80;;
45893;SDS011;31603;51.148;16.932;2023-08-06T11:00:27;3.65;;;1.70;;
45893;SDS011;31603;51.148;16.932;2023-08-06T11:02:54;2.05;;;1.63;;
45893;SDS011;31603;51.148;16.932;2023-08-06T11:05:21;3.05;;;1.60;;
45893;SDS011;31603;51.148;16.932;2023-08-06T11:07:48;3.05;;;1.80;;
45893;SDS011;31603;51.148;16.932;2023-08-06T11:10:16;3.33;;;1.80;;
45893;SDS011;31603;51.148;16.932;2023-08-06T11:12:43;2.22;;;1.42;;
45893;SDS011;31603;51.148;16.932;2023-08-06T11:15:12;3.63;;;1.88;;
45893;SDS011;31603;51.148;16.932;2023-08-06T11:17:39;2.05;;;1.35;;
45893;SDS011;31603;51.148;16.932;2023-08-06T11:20:07;1.88;;;1.38;;
45893;SDS011;31603;51.148;16.932;2023-08-06T11:22:36;2.63;;;1.67;;
45893;SDS011;31603;51.148;16.932;2023-08-06T11:25:04;3.13;;;1.95;;
45893;SDS011;31603;51.148;16.932;2023-08-06T11:27:31;5.47;;;2.40;;
45893;SDS011;31603;51.148;16.932;2023-08-06T11:29:59;2.50;;;1.50;;
45893;SDS011;31603;51.148;16.932;2023-08-06T11:32:27;2.70;;;1.58;;
45893;SDS011;31603;51.148;16.932;2023-08-06T11:34:54;2.95;;;1.90;;
45893;SDS011;31603;51.148;16.932;2023-08-06T11:37:21;4.97;;;2.25;;
45893;SDS011;31603;51.148;16.932;2023-08-06T11:39:49;2.20;;;1.45;;
45893;SDS011;31603;51.148;16.932;2023-08-06T11:42:17;1.85;;;1.20;;
45893;SDS011;31603;51.148;16.932;2023-08-06T11:44:46;2.92;;;1.85;;
45893;SDS011;31603;51.148;16.932;2023-08-06T11:47:14;3.13;;;1.55;;
45893;SDS011;31603;51.148;16.932;2023-08-06T11:49:45;5.15;;;1.60;;
45893;SDS011;31603;51.148;16.932;2023-08-06T11:52:16;2.85;;;1.42;;
45893;SDS011;31603;51.148;16.932;2023-08-06T11:54:44;2.63;;;1.48;;
45893;SDS011;31603;51.148;16.932;2023-08-06T11:57:12;2.75;;;1.40;;
45893;SDS011;31603;51.148;16.932;2023-08-06T11:59:38;5.03;;;1.55;;
45893;SDS011;31603;51.148;16.932;2023-08-06T12:02:07;6.43;;;1.90;;
45893;SDS011;31603;51.148;16.932;2023-08-06T12:05:03;5.32;;;1.73;;
45893;SDS011;31603;51.148;16.932;2023-08-06T12:07:31;9.67;;;1.80;;
45893;SDS011;31603;51.148;16.932;2023-08-06T12:09:59;10.38;;;1.98;;
45893;SDS011;31603;51.148;16.932;2023-08-06T12:12:26;9.18;;;1.70;;
45893;SDS011;31603;51.148;16.932;2023-08-06T12:14:53;11.23;;;2.10;;
45893;SDS011;31603;51.148;16.932;2023-08-06T12:17:20;10.57;;;1.85;;
45893;SDS011;31603;51.148;16.932;2023-08-06T12:19:47;13.40;;;2.22;;
45893;SDS011;31603;51.148;16.932;2023-08-06T12:22:15;14.90;;;2.53;;
45893;SDS011;31603;51.148;16.932;2023-08-06T12:24:42;10.20;;;2.05;;
45893;SDS011;31603;51.148;16.932;2023-08-06T12:27:09;10.07;;;2.13;;
45893;SDS011;31603;51.148;16.932;2023-08-06T12:29:36;13.30;;;2.60;;
45893;SDS011;31603;51.148;16.932;2023-08-06T12:32:03;11.73;;;2.30;;
45893;SDS011;31603;51.148;16.932;2023-08-06T12:34:30;11.00;;;2.28;;
45893;SDS011;31603;51.148;16.932;2023-08-06T12:36:57;12.50;;;2.47;;
45893;SDS011;31603;51.148;16.932;2023-08-06T12:39:24;13.73;;;2.45;;
45893;SDS011;31603;51.148;16.932;2023-08-06T12:41:53;8.88;;;2.17;;
45893;SDS011;31603;51.148;16.932;2023-08-06T12:44:20;8.45;;;1.88;;
45893;SDS011;31603;51.148;16.932;2023-08-06T12:46:47;12.32;;;2.47;;
45893;SDS011;31603;51.148;16.932;2023-08-06T12:49:13;9.52;;;2.10;;
45893;SDS011;31603;51.148;16.932;2023-08-06T12:51:39;6.22;;;1.77;;
45893;SDS011;31603;51.148;16.932;2023-08-06T12:54:06;11.13;;;2.33;;
45893;SDS011;31603;51.148;16.932;2023-08-06T12:56:33;12.75;;;2.58;;
45893;SDS011;31603;51.148;16.932;2023-08-06T12:59:00;12.80;;;2.63;;
45893;SDS011;31603;51.148;16.932;2023-08-06T13:01:26;12.60;;;2.78;;
45893;SDS011;31603;51.148;16.932;2023-08-06T13:03:53;9.30;;;2.25;;
45893;SDS011;31603;51.148;16.932;2023-08-06T13:06:19;7.93;;;2.10;;
45893;SDS011;31603;51.148;16.932;2023-08-06T13:08:46;10.07;;;2.35;;
45893;SDS011;31603;51.148;16.932;2023-08-06T13:11:14;12.88;;;2.78;;
45893;SDS011;31603;51.148;16.932;2023-08-06T13:13:42;8.98;;;2.05;;
45893;SDS011;31603;51.148;16.932;2023-08-06T13:16:09;11.02;;;2.53;;
45893;SDS011;31603;51.148;16.932;2023-08-06T13:18:35;7.25;;;1.90;;
45893;SDS011;31603;51.148;16.932;2023-08-06T13:21:02;10.60;;;2.42;;
45893;SDS011;31603;51.148;16.932;2023-08-06T13:23:28;7.57;;;2.17;;
45893;SDS011;31603;51.148;16.932;2023-08-06T13:25:55;8.95;;;2.00;;
45893;SDS011;31603;51.148;16.932;2023-08-06T13:28:21;14.98;;;3.13;;
45893;SDS011;31603;51.148;16.932;2023-08-06T13:30:51;11.10;;;2.53;;
45893;SDS011;31603;51.148;16.932;2023-08-06T13:33:18;8.68;;;2.10;;
45893;SDS011;31603;51.148;16.932;2023-08-06T13:35:44;10.73;;;2.25;;
45893;SDS011;31603;51.148;16.932;2023-08-06T13:38:11;13.18;;;2.50;;
45893;SDS011;31603;51.148;16.932;2023-08-06T13:40:37;8.55;;;2.00;;
45893;SDS011;31603;51.148;16.932;2023-08-06T13:43:03;12.48;;;2.38;;
45893;SDS011;31603;51.148;16.932;2023-08-06T13:45:30;8.43;;;2.50;;
45893;SDS011;31603;51.148;16.932;2023-08-06T13:48:00;11.93;;;2.50;;
45893;SDS011;31603;51.148;16.932;2023-08-06T13:50:28;10.77;;;2.13;;
45893;SDS011;31603;51.148;16.932;2023-08-06T13:52:55;11.70;;;2.28;;
45893;SDS011;31603;51.148;16.932;2023-08-06T13:55:22;9.80;;;2.22;;
45893;SDS011;31603;51.148;16.932;2023-08-06T13:57:48;8.40;;;2.00;;
45893;SDS011;31603;51.148;16.932;2023-08-06T14:00:16;12.80;;;2.85;;
45893;SDS011;31603;51.148;16.932;2023-08-06T14:02:42;8.73;;;2.17;;
45893;SDS011;31603;51.148;16.932;2023-08-06T14:05:11;9.85;;;2.47;;
45893;SDS011;31603;51.148;16.932;2023-08-06T14:07:38;7.38;;;2.20;;
45893;SDS011;31603;51.148;16.932;2023-08-06T14:10:05;9.68;;;2.45;;
45893;SDS011;31603;51.148;16.932;2023-08-06T14:12:34;8.02;;;2.25;;
45893;SDS011;31603;51.148;16.932;2023-08-06T14:15:00;14.30;;;3.20;;
45893;SDS011;31603;51.148;16.932;2023-08-06T14:17:28;10.73;;;2.65;;
45893;SDS011;31603;51.148;16.932;2023-08-06T14:19:54;8.18;;;2.30;;
45893;SDS011;31603;51.148;16.932;2023-08-06T14:22:22;15.73;;;3.55;;
45893;SDS011;31603;51.148;16.932;2023-08-06T14:24:49;8.95;;;2.53;;
45893;SDS011;31603;51.148;16.932;2023-08-06T14:27:15;9.50;;;2.85;;
45893;SDS011;31603;51.148;16.932;2023-08-06T14:29:42;11.25;;;2.65;;
45893;SDS011;31603;51.148;16.932;2023-08-06T14:32:08;7.03;;;2.08;;
45893;SDS011;31603;51.148;16.932;2023-08-06T14:34:34;8.23;;;2.38;;
45893;SDS011;31603;51.148;16.932;2023-08-06T14:37:01;5.60;;;2.00;;